Time;durP1;ratioP1;P1;durP2;ratioP2;P2;SDS_P1;SDS_P2;PMS_P1;PMS_P2;Temp;Humidity;BMP_temperature;BMP_pressure;BME280_temperature;BME280_humidity;BME280_pressure;Samples;Min_cycle;Max_cycle;Signal;HPM_P1;HPM_P2
2023/02/20 00:01:27;;;;;;;12.02;5.13;;;7.20;99.90;;;;;;4841019;29;20549;-76
2023/02/20 00:03:54;;;;;;;;;;;7.20;99.90;;;;;;4858856;29;20049;-76
2023/02/20 00:06:20;;;;;;;8.60;4.38;;;7.20;99.90;;;;;;4855854;29;19912;-76
2023/02/20 00:08:45;;;;;;;10.45;5.15;;;7.20;99.90;;;;;;4844176;29;20041;-75
2023/02/20 00:11:11;;;;;;;15.65;5.32;;;7.20;99.90;;;;;;4843729;29;20124;-74
2023/02/20 00:13:37;;;;;;;8.63;4.65;;;7.20;99.90;;;;;;4848773;29;20140;-74
2023/02/20 00:16:03;;;;;;;12.35;5.57;;;7.30;99.90;;;;;;4843293;29;20414;-74
2023/02/20 00:18:29;;;;;;;11.65;6.05;;;7.30;99.90;;;;;;4855016;29;20030;-74
2023/02/20 00:20:54;;;;;;;10.88;5.88;;;7.30;99.90;;;;;;4848476;29;20093;-75
2023/02/20 00:23:20;;;;;;;12.98;5.72;;;7.30;99.90;;;;;;4872201;29;20056;-75
2023/02/20 00:25:46;;;;;;;10.95;5.60;;;7.30;99.90;;;;;;4882996;29;20085;-74
2023/02/20 00:28:11;;;;;;;13.55;5.63;;;7.30;99.90;;;;;;4875526;29;20042;-75
2023/02/20 00:30:37;;;;;;;11.40;5.63;;;7.30;99.90;;;;;;4861038;29;20034;-74
2023/02/20 00:33:02;;;;;;;12.07;5.78;;;7.30;99.90;;;;;;4878296;29;20120;-74
2023/02/20 00:35:28;;;;;;;10.85;5.22;;;7.40;99.90;;;;;;4890654;29;20059;-75
2023/02/20 00:37:54;;;;;;;14.40;5.90;;;7.30;99.90;;;;;;4883051;29;20385;-75
2023/02/20 00:40:22;;;;;;;12.90;5.53;;;7.30;99.90;;;;;;4873298;29;20025;-75
2023/02/20 00:42:48;;;;;;;10.32;5.70;;;7.30;99.90;;;;;;4879110;29;20025;-75
2023/02/20 00:45:16;;;;;;;18.42;5.53;;;7.30;99.90;;;;;;4879335;29;20419;-75
2023/02/20 00:47:43;;;;;;;8.85;5.78;;;7.40;99.90;;;;;;4879473;29;20029;-75
2023/02/20 00:50:12;;;;;;;15.93;5.43;;;7.40;99.90;;;;;;4879116;29;20032;-75
2023/02/20 00:52:38;;;;;;;9.32;5.22;;;7.30;99.90;;;;;;4879376;29;20033;-75
2023/02/20 00:55:04;;;;;;;17.20;6.15;;;7.40;99.90;;;;;;4880330;29;20039;-75
2023/02/20 00:57:30;;;;;;;10.82;5.03;;;7.40;99.90;;;;;;4881759;29;20037;-75
2023/02/20 00:59:57;;;;;;;12.90;5.22;;;7.40;99.90;;;;;;4892598;29;20724;-74
2023/02/20 01:02:22;;;;;;;10.57;5.43;;;7.40;99.90;;;;;;4883277;29;20028;-75
2023/02/20 01:04:48;;;;;;;13.50;5.57;;;7.30;99.90;;;;;;4882955;29;20029;-75
2023/02/20 01:07:14;;;;;;;13.15;5.70;;;7.30;99.90;;;;;;4883107;29;20037;-73
2023/02/20 01:09:40;;;;;;;11.63;5.28;;;7.30;99.90;;;;;;4884678;29;20021;-75
2023/02/20 01:12:06;;;;;;;12.65;5.05;;;7.20;99.90;;;;;;4885555;29;20121;-74
2023/02/20 01:14:32;;;;;;;11.63;5.90;;;7.20;99.90;;;;;;4885697;29;20464;-74
2023/02/20 01:16:58;;;;;;;14.98;5.70;;;7.20;99.90;;;;;;4885597;29;20039;-76
2023/02/20 01:19:24;;;;;;;16.20;6.07;;;7.10;99.90;;;;;;4882326;29;20550;-75
2023/02/20 01:21:50;;;;;;;19.58;5.43;;;7.10;99.90;;;;;;4884823;29;20032;-75
2023/02/20 01:24:17;;;;;;;17.42;6.13;;;7.10;99.90;;;;;;4885109;29;20040;-75
2023/02/20 01:26:47;;;;;;;12.77;5.70;;;7.00;99.90;;;;;;4872961;29;20033;-75
2023/02/20 01:29:14;;;;;;;11.35;5.80;;;7.00;99.90;;;;;;4903028;29;20041;-73
2023/02/20 01:31:45;;;;;;;18.35;6.70;;;7.00;99.90;;;;;;4892359;29;20030;-75
2023/02/20 01:34:10;;;;;;;14.63;6.15;;;7.00;99.90;;;;;;4890672;29;20033;-76
2023/02/20 01:36:36;;;;;;;13.20;6.47;;;7.00;99.90;;;;;;4906644;29;20021;-76
2023/02/20 01:39:02;;;;;;;25.50;7.00;;;7.00;99.90;;;;;;4906205;29;20021;-76
2023/02/20 01:41:28;;;;;;;14.70;6.15;;;7.00;99.90;;;;;;4906405;29;20040;-74
2023/02/20 01:43:53;;;;;;;16.90;8.23;;;7.00;99.90;;;;;;4901337;29;20029;-75
2023/02/20 01:46:39;;;;;;;20.27;7.18;;;7.00;99.90;;;;;;4906305;29;20023;-74
2023/02/20 01:49:10;;;;;;;19.35;8.15;;;7.10;99.90;;;;;;4905529;29;20083;-73
2023/02/20 01:51:42;;;;;;;21.88;7.43;;;7.10;99.90;;;;;;4889841;29;20516;-75
2023/02/20 01:54:11;;;;;;;20.15;8.60;;;7.20;99.90;;;;;;4882730;29;20506;-76
2023/02/20 01:56:36;;;;;;;;;;;7.30;99.90;;;;;;4885321;29;20104;-75
2023/02/20 01:59:04;;;;;;;24.83;8.60;;;7.30;99.90;;;;;;4886232;29;20388;-75
2023/02/20 02:01:30;;;;;;;26.23;9.27;;;7.30;99.90;;;;;;4880883;29;20061;-73
2023/02/20 02:04:01;;;;;;;28.42;10.07;;;7.30;99.90;;;;;;4902844;29;20029;-74
2023/02/20 02:06:28;;;;;;;21.55;9.15;;;7.30;99.90;;;;;;4899228;29;20028;-73
2023/02/20 02:08:58;;;;;;;32.22;11.05;;;7.40;99.90;;;;;;4903927;29;20111;-74
2023/02/20 02:11:25;;;;;;;25.88;10.73;;;7.40;99.90;;;;;;4888756;29;20037;-75
2023/02/20 02:13:53;;;;;;;24.80;10.40;;;7.40;99.90;;;;;;4883638;29;20045;-75
2023/02/20 02:16:19;;;;;;;23.30;9.90;;;7.40;99.90;;;;;;4863522;29;20685;-75
2023/02/20 02:18:53;;;;;;;26.33;10.02;;;7.40;99.90;;;;;;4877854;29;20036;-75
2023/02/20 02:21:40;;;;;;;30.80;10.20;;;7.50;99.90;;;;;;4879357;29;20048;-76
2023/02/20 02:24:38;;;;;;;26.50;10.38;;;7.50;99.90;;;;;;4863638;29;20079;-75
2023/02/20 02:27:37;;;;;;;21.52;10.45;;;7.60;99.90;;;;;;4868837;29;20486;-74
2023/02/20 02:30:26;;;;;;;31.35;10.27;;;7.60;99.90;;;;;;4879514;29;20033;-74
2023/02/20 02:33:31;;;;;;;28.63;10.15;;;7.60;99.90;;;;;;4864113;29;20087;-73
2023/02/20 02:36:05;;;;;;;33.42;10.93;;;7.60;99.90;;;;;;4836380;29;20494;-74
2023/02/20 02:38:54;;;;;;;25.33;10.18;;;7.60;99.90;;;;;;4880833;29;20543;-74
2023/02/20 02:41:39;;;;;;;33.25;12.65;;;7.70;99.90;;;;;;4852780;29;20041;-74
2023/02/20 02:44:21;;;;;;;28.83;12.02;;;7.60;99.90;;;;;;4861430;29;20047;-74
2023/02/20 02:47:06;;;;;;;30.17;11.20;;;7.60;99.90;;;;;;4867442;29;20033;-74
2023/02/20 02:49:37;;;;;;;32.40;12.80;;;7.70;99.90;;;;;;4881201;29;20435;-74
2023/02/20 02:52:04;;;;;;;33.00;11.85;;;7.70;99.90;;;;;;4880616;29;20048;-75
2023/02/20 02:54:29;;;;;;;34.70;12.10;;;7.80;99.90;;;;;;4881059;29;20036;-75
2023/02/20 02:57:32;;;;;;;38.33;13.27;;;7.80;99.90;;;;;;4880982;29;20497;-74
2023/02/20 03:00:05;;;;;;;34.60;13.52;;;7.80;99.90;;;;;;4823671;29;20039;-74
2023/02/20 03:02:36;;;;;;;27.17;11.48;;;7.90;99.90;;;;;;4884150;29;20041;-75
2023/02/20 03:05:04;;;;;;;36.92;13.32;;;7.90;99.90;;;;;;4881010;29;20060;-75
2023/02/20 03:07:34;;;;;;;31.45;12.40;;;7.90;99.90;;;;;;4880594;29;20029;-76
2023/02/20 03:10:05;;;;;;;31.00;13.20;;;7.90;99.90;;;;;;4879272;29;20413;-76
2023/02/20 03:12:35;;;;;;;37.63;12.43;;;8.00;99.90;;;;;;4880539;29;20434;-76
2023/02/20 03:15:32;;;;;;;32.75;12.43;;;8.00;99.90;;;;;;4861986;29;20072;-75
2023/02/20 03:18:14;;;;;;;30.05;12.27;;;7.90;99.90;;;;;;4880667;29;20045;-75
2023/02/20 03:20:54;;;;;;;26.50;12.75;;;8.00;99.90;;;;;;4876308;29;20130;-74
2023/02/20 03:23:30;;;;;;;33.90;13.05;;;7.90;99.90;;;;;;4864699;29;20033;-76
2023/02/20 03:26:06;;;;;;;30.35;14.02;;;7.90;99.90;;;;;;4877804;29;20478;-74
2023/02/20 03:28:45;;;;;;;28.60;12.68;;;8.00;99.90;;;;;;4879307;29;20113;-75
2023/02/20 03:31:18;;;;;;;47.00;14.70;;;8.00;99.90;;;;;;4870438;29;20405;-76
2023/02/20 03:45:09;;;;;;;38.30;12.90;;;8.10;99.90;;;;;;4870814;29;20036;-74
2023/02/20 03:47:38;;;;;;;28.75;11.90;;;8.10;99.90;;;;;;4880186;29;20093;-75
2023/02/20 03:52:50;;;;;;;35.33;12.10;;;8.20;99.90;;;;;;4880036;29;20196;-75
2023/02/20 03:55:16;;;;;;;33.65;11.98;;;8.20;99.90;;;;;;4880088;29;20124;-75
2023/02/20 03:57:46;;;;;;;29.10;12.57;;;8.20;99.90;;;;;;4879947;29;20451;-75
2023/02/20 04:00:21;;;;;;;36.58;12.68;;;8.20;99.90;;;;;;4879657;29;20041;-75
2023/02/20 04:02:50;;;;;;;24.27;11.65;;;8.20;99.90;;;;;;4862127;29;20096;-75
2023/02/20 04:05:23;;;;;;;38.08;13.48;;;8.10;99.90;;;;;;4878907;29;20485;-74
2023/02/20 04:08:06;;;;;;;34.60;13.27;;;8.20;99.90;;;;;;4879329;29;20085;-75
2023/02/20 04:10:38;;;;;;;29.67;12.57;;;8.20;99.90;;;;;;4879506;29;20423;-76
2023/02/20 04:13:05;;;;;;;30.30;12.32;;;8.20;99.90;;;;;;4878698;29;20120;-76
2023/02/20 04:15:32;;;;;;;34.58;12.30;;;8.20;99.90;;;;;;4878285;29;20041;-75
2023/02/20 04:18:09;;;;;;;35.88;12.20;;;8.20;99.90;;;;;;4883054;29;20048;-75
2023/02/20 04:20:35;;;;;;;33.17;12.03;;;8.30;99.90;;;;;;4894369;29;20033;-75
2023/02/20 04:23:14;;;;;;;31.00;12.52;;;8.30;99.90;;;;;;4874808;29;20037;-75
2023/02/20 04:25:45;;;;;;;24.13;11.57;;;8.30;99.90;;;;;;4879614;29;20112;-75
2023/02/20 04:28:13;;;;;;;34.33;13.75;;;8.30;99.90;;;;;;4878272;29;20105;-76
2023/02/20 04:30:39;;;;;;;32.67;14.07;;;8.40;99.90;;;;;;4863371;29;20940;-75
2023/02/20 04:33:04;;;;;;;46.85;15.13;;;8.40;99.90;;;;;;4878628;29;20136;-75
2023/02/20 04:35:30;;;;;;;33.03;12.80;;;8.40;99.90;;;;;;4878767;29;20049;-76
2023/02/20 04:37:58;;;;;;;38.38;13.70;;;8.30;99.90;;;;;;4878671;29;20033;-74
2023/02/20 04:40:24;;;;;;;34.33;13.70;;;8.30;99.90;;;;;;4879271;29;20068;-75
2023/02/20 04:42:50;;;;;;;31.63;14.45;;;8.40;99.90;;;;;;4879451;29;20029;-76
2023/02/20 04:45:19;;;;;;;32.35;12.90;;;8.40;99.90;;;;;;4879445;29;20037;-75
2023/02/20 04:47:46;;;;;;;46.53;14.88;;;8.40;99.90;;;;;;4876882;29;20171;-75
2023/02/20 04:50:22;;;;;;;35.30;14.18;;;8.40;99.90;;;;;;4877220;29;20032;-75
2023/02/20 04:52:48;;;;;;;36.28;13.50;;;8.40;99.90;;;;;;4866634;29;20040;-75
2023/02/20 04:55:13;;;;;;;37.33;13.70;;;8.50;99.90;;;;;;4876885;29;20041;-74
2023/02/20 04:57:39;;;;;;;38.75;13.40;;;8.40;99.90;;;;;;4878553;29;20595;-75
2023/02/20 05:00:07;;;;;;;36.03;13.63;;;8.50;99.90;;;;;;4876911;29;20040;-75
2023/02/20 05:02:35;;;;;;;;;;;8.50;99.90;;;;;;4876291;29;20104;-75
2023/02/20 05:05:00;;;;;;;40.45;12.50;;;8.50;99.90;;;;;;4877347;29;19911;-75
2023/02/20 05:07:26;;;;;;;32.90;13.30;;;8.50;99.90;;;;;;4877430;29;20040;-75
2023/02/20 05:09:52;;;;;;;28.63;13.13;;;8.50;99.90;;;;;;4878844;29;20177;-75
2023/02/20 05:12:17;;;;;;;38.40;11.60;;;8.50;99.90;;;;;;4875059;29;20101;-75
2023/02/20 05:14:43;;;;;;;31.55;11.82;;;8.50;99.90;;;;;;4877660;29;20053;-75
2023/02/20 05:17:08;;;;;;;37.95;11.93;;;8.60;99.90;;;;;;4877956;29;20125;-75
2023/02/20 05:19:35;;;;;;;27.75;10.93;;;8.60;99.90;;;;;;4878593;29;20097;-75
2023/02/20 05:22:19;;;;;;;25.08;11.00;;;8.60;99.90;;;;;;4877999;29;20033;-74
2023/02/20 05:24:46;;;;;;;28.27;10.65;;;8.60;99.90;;;;;;4878275;29;20037;-74
2023/02/20 05:27:14;;;;;;;36.20;11.07;;;8.60;99.90;;;;;;4872168;29;20045;-75
2023/02/20 05:29:45;;;;;;;29.42;12.10;;;8.60;99.90;;;;;;4876428;29;20031;-75
2023/02/20 05:32:12;;;;;;;29.17;9.85;;;8.60;99.90;;;;;;4878191;29;20124;-75
2023/02/20 05:34:38;;;;;;;34.00;9.53;;;8.60;99.90;;;;;;4878499;29;20051;-75
2023/02/20 05:37:03;;;;;;;28.40;10.63;;;8.70;99.90;;;;;;4880660;29;20120;-75
2023/02/20 05:39:29;;;;;;;18.63;8.85;;;8.80;99.90;;;;;;4874833;29;20029;-74
2023/02/20 05:41:54;;;;;;;30.90;8.95;;;8.80;99.90;;;;;;4879604;29;20382;-75
2023/02/20 05:44:20;;;;;;;27.23;10.63;;;8.80;99.90;;;;;;4878024;29;20105;-74
2023/02/20 05:46:45;;;;;;;31.27;9.82;;;8.80;99.90;;;;;;4878685;29;20032;-75
2023/02/20 05:49:12;;;;;;;28.02;8.63;;;8.80;99.90;;;;;;4880391;29;20438;-75
2023/02/20 05:51:38;;;;;;;25.05;8.40;;;8.70;99.90;;;;;;4884157;29;20032;-75
2023/02/20 05:54:04;;;;;;;39.83;9.60;;;8.70;99.90;;;;;;4887455;29;20108;-75
2023/02/20 05:56:31;;;;;;;30.58;9.55;;;8.70;99.90;;;;;;4862425;29;20025;-75
2023/02/20 05:58:57;;;;;;;21.53;7.33;;;8.70;99.90;;;;;;4877681;29;20068;-74
2023/02/20 06:01:30;;;;;;;24.98;8.68;;;8.70;99.90;;;;;;4881652;29;20289;-74
2023/02/20 06:03:57;;;;;;;33.03;8.13;;;8.70;99.90;;;;;;4874584;29;20038;-74
2023/02/20 06:06:23;;;;;;;22.00;8.57;;;8.80;99.90;;;;;;4868052;29;20045;-75
2023/02/20 06:08:49;;;;;;;15.70;7.68;;;8.80;99.90;;;;;;4881157;29;20504;-75
2023/02/20 06:11:15;;;;;;;20.40;7.22;;;8.80;99.90;;;;;;4881734;29;20111;-75
2023/02/20 06:13:44;;;;;;;19.33;8.70;;;8.70;99.90;;;;;;4881713;29;20060;-74
2023/02/20 06:16:11;;;;;;;24.77;7.85;;;8.80;99.90;;;;;;4882000;29;20045;-75
2023/02/20 06:18:41;;;;;;;31.55;7.40;;;8.70;99.90;;;;;;4881715;29;20033;-75
2023/02/20 06:21:10;;;;;;;24.42;7.82;;;8.70;99.90;;;;;;4879603;29;20036;-74
2023/02/20 06:23:37;;;;;;;18.50;7.93;;;8.70;99.90;;;;;;4881622;29;20123;-75
2023/02/20 06:26:04;;;;;;;29.80;7.72;;;8.70;99.90;;;;;;4880301;29;20116;-74
2023/02/20 06:28:29;;;;;;;27.63;7.50;;;8.70;99.90;;;;;;4877872;29;20038;-75
2023/02/20 06:30:55;;;;;;;27.77;7.97;;;8.80;99.90;;;;;;4881718;29;20134;-75
2023/02/20 06:33:21;;;;;;;19.83;7.45;;;8.80;99.90;;;;;;4880405;29;20033;-75
2023/02/20 06:35:46;;;;;;;29.52;7.25;;;8.80;99.90;;;;;;4880483;29;20060;-75
2023/02/20 06:38:12;;;;;;;22.95;6.57;;;8.70;99.90;;;;;;4881386;29;20029;-74
2023/02/20 06:40:38;;;;;;;17.70;6.93;;;8.70;99.90;;;;;;4881260;29;20029;-74
2023/02/20 06:43:04;;;;;;;31.70;7.15;;;8.70;99.90;;;;;;4879960;29;20516;-74
2023/02/20 06:45:30;;;;;;;19.02;6.95;;;8.70;99.90;;;;;;4880792;29;20029;-74
2023/02/20 06:47:55;;;;;;;24.88;6.75;;;8.80;99.90;;;;;;4880286;29;20075;-75
2023/02/20 06:50:21;;;;;;;15.63;6.32;;;8.80;99.90;;;;;;4881073;29;20033;-74
2023/02/20 06:52:47;;;;;;;20.08;7.93;;;8.80;99.90;;;;;;4880306;29;20025;-74
2023/02/20 06:55:13;;;;;;;22.95;7.60;;;8.80;99.90;;;;;;4876883;29;20036;-75
2023/02/20 06:57:38;;;;;;;24.60;6.72;;;8.80;99.90;;;;;;4880990;29;20029;-74
2023/02/20 07:00:06;;;;;;;27.85;7.65;;;8.90;99.90;;;;;;4880979;29;20048;-76
2023/02/20 07:02:33;;;;;;;20.92;6.65;;;8.90;99.90;;;;;;4881134;29;20033;-75
2023/02/20 07:04:59;;;;;;;16.83;6.55;;;8.80;99.90;;;;;;4868902;29;20038;-75
2023/02/20 07:07:24;;;;;;;20.35;6.28;;;8.80;99.90;;;;;;4878078;29;20043;-75
2023/02/20 07:09:50;;;;;;;26.30;6.32;;;8.80;99.90;;;;;;4866480;29;20029;-74
2023/02/20 07:12:16;;;;;;;20.48;6.22;;;8.80;99.90;;;;;;4881118;29;20166;-75
2023/02/20 07:14:42;;;;;;;20.70;6.00;;;8.80;99.90;;;;;;4879893;29;20513;-75
2023/02/20 07:17:08;;;;;;;16.98;5.88;;;8.80;99.90;;;;;;4879675;29;20025;-74
2023/02/20 07:19:34;;;;;;;17.30;5.65;;;8.80;99.90;;;;;;4879509;29;20113;-75
2023/02/20 07:21:59;;;;;;;18.45;6.05;;;8.90;99.90;;;;;;4876307;29;20492;-75
2023/02/20 07:24:25;;;;;;;20.17;6.07;;;8.90;99.90;;;;;;4880939;29;20037;-75
2023/02/20 07:26:51;;;;;;;21.17;5.88;;;8.90;99.90;;;;;;4879997;29;20051;-75
2023/02/20 07:29:16;;;;;;;23.92;7.13;;;8.90;99.90;;;;;;4879772;29;20045;-75
2023/02/20 07:31:43;;;;;;;13.27;5.90;;;8.90;99.90;;;;;;4879519;29;20459;-74
2023/02/20 07:34:09;;;;;;;14.73;5.22;;;8.90;99.90;;;;;;4875707;29;20093;-74
2023/02/20 07:36:35;;;;;;;28.58;6.90;;;8.90;99.90;;;;;;4873088;29;20033;-73
2023/02/20 07:39:02;;;;;;;16.30;6.07;;;9.00;99.90;;;;;;4875855;29;20085;-74
2023/02/20 07:41:33;;;;;;;13.18;5.40;;;9.00;99.90;;;;;;4880694;29;20097;-74
2023/02/20 07:43:59;;;;;;;12.65;5.47;;;9.00;99.90;;;;;;4880717;29;20052;-75
2023/02/20 07:46:26;;;;;;;17.80;6.97;;;9.00;99.90;;;;;;4877340;29;20525;-74
2023/02/20 07:48:52;;;;;;;19.98;6.53;;;8.90;99.90;;;;;;4878208;29;20121;-75
2023/02/20 07:51:18;;;;;;;18.45;5.88;;;8.90;99.90;;;;;;4878088;29;20052;-75
2023/02/20 07:53:48;;;;;;;19.10;7.45;;;9.00;99.90;;;;;;4862341;29;20097;-74
2023/02/20 07:56:14;;;;;;;23.20;6.82;;;9.00;99.90;;;;;;4870797;29;20569;-74
2023/02/20 07:58:40;;;;;;;23.10;8.10;;;9.10;99.90;;;;;;4869075;29;20089;-75
2023/02/20 08:01:05;;;;;;;18.25;5.97;;;9.10;99.90;;;;;;4877018;29;20038;-75
2023/02/20 08:03:31;;;;;;;13.50;4.68;;;9.10;99.90;;;;;;4877060;29;20113;-75
2023/02/20 08:05:57;;;;;;;30.13;6.03;;;9.20;99.90;;;;;;4860470;29;20586;-74
2023/02/20 08:08:24;;;;;;;12.20;5.00;;;9.20;99.90;;;;;;4868834;29;20036;-74
2023/02/20 08:10:51;;;;;;;18.20;5.93;;;9.30;99.90;;;;;;4849241;29;20506;-74
2023/02/20 08:13:17;;;;;;;20.55;5.25;;;9.20;99.90;;;;;;4870280;29;20041;-75
2023/02/20 08:15:43;;;;;;;27.70;6.20;;;9.20;99.90;;;;;;4871419;29;20037;-75
2023/02/20 08:18:10;;;;;;;13.20;5.60;;;9.20;99.90;;;;;;4860872;29;20049;-74
2023/02/20 08:20:36;;;;;;;18.25;5.70;;;9.20;99.90;;;;;;4870821;29;20036;-75
2023/02/20 08:23:04;;;;;;;23.58;6.22;;;9.20;99.90;;;;;;4879759;29;20094;-75
2023/02/20 08:25:31;;;;;;;;;;;9.30;99.90;;;;;;4880126;29;20025;-74
2023/02/20 08:27:57;;;;;;;21.27;5.70;;;9.30;99.90;;;;;;4879059;29;19911;-75
2023/02/20 08:30:26;;;;;;;20.15;5.93;;;9.30;99.90;;;;;;4879513;29;20109;-74
2023/02/20 08:32:53;;;;;;;20.23;5.57;;;9.40;99.90;;;;;;4878258;29;20068;-75
2023/02/20 08:35:20;;;;;;;20.42;5.78;;;9.50;99.90;;;;;;4877703;29;20033;-75
2023/02/20 08:37:46;;;;;;;16.40;5.45;;;9.40;99.90;;;;;;4870211;29;20520;-75
2023/02/20 08:40:12;;;;;;;19.30;4.97;;;9.40;99.90;;;;;;4878673;29;20389;-75
2023/02/20 08:42:38;;;;;;;16.67;6.40;;;9.40;99.90;;;;;;4879193;29;20397;-75
2023/02/20 08:45:05;;;;;;;19.83;5.68;;;9.40;99.90;;;;;;4866245;29;20033;-75
2023/02/20 08:47:32;;;;;;;19.25;5.47;;;9.40;99.90;;;;;;4878380;29;20085;-76
2023/02/20 08:49:57;;;;;;;21.90;6.10;;;9.50;99.90;;;;;;4877940;29;20128;-76
2023/02/20 08:52:24;;;;;;;19.88;6.10;;;9.60;99.90;;;;;;4878132;29;20116;-76
2023/02/20 08:54:50;;;;;;;16.00;6.07;;;9.60;99.90;;;;;;4877986;29;20033;-79
2023/02/20 08:57:16;;;;;;;21.50;5.03;;;9.60;99.90;;;;;;4879025;29;20513;-77
2023/02/20 08:59:42;;;;;;;19.02;6.53;;;9.70;99.90;;;;;;4879841;29;20100;-80
2023/02/20 09:02:15;;;;;;;17.50;6.57;;;9.70;99.90;;;;;;4870215;29;20072;-77
2023/02/20 09:04:44;;;;;;;11.80;5.53;;;9.70;99.90;;;;;;4877570;29;20025;-76
2023/02/20 09:07:10;;;;;;;14.27;5.70;;;9.70;99.90;;;;;;4879020;29;20418;-78
2023/02/20 09:09:36;;;;;;;18.13;5.85;;;9.70;99.90;;;;;;4879761;29;20502;-78
2023/02/20 09:12:01;;;;;;;19.40;5.22;;;9.60;99.90;;;;;;4869673;29;20093;-77
2023/02/20 09:14:28;;;;;;;14.13;5.75;;;9.60;99.90;;;;;;4865250;29;20046;-77
2023/02/20 09:16:54;;;;;;;14.65;6.20;;;9.60;99.90;;;;;;4892936;29;20034;-77
2023/02/20 09:19:20;;;;;;;15.45;6.28;;;9.70;99.90;;;;;;4900406;29;20021;-77
2023/02/20 09:21:48;;;;;;;17.70;6.75;;;9.70;99.90;;;;;;4901704;29;20032;-77
2023/02/20 09:24:14;;;;;;;17.40;7.00;;;9.70;99.90;;;;;;4902911;29;20033;-76
2023/02/20 09:26:39;;;;;;;17.88;5.60;;;9.70;99.90;;;;;;4895644;29;20024;-77
2023/02/20 09:29:05;;;;;;;19.73;6.25;;;9.80;99.90;;;;;;4888978;29;20049;-77
2023/02/20 09:31:31;;;;;;;16.27;5.63;;;9.70;99.90;;;;;;4897313;29;20017;-76
2023/02/20 09:33:56;;;;;;;15.80;6.00;;;9.60;99.90;;;;;;4906786;29;20032;-77
2023/02/20 09:36:22;;;;;;;14.95;6.93;;;9.60;99.90;;;;;;4906049;29;20076;-78
2023/02/20 09:38:48;;;;;;;11.85;6.53;;;9.70;99.90;;;;;;4907066;29;20060;-78
2023/02/20 09:41:29;;;;;;;15.18;5.85;;;9.60;99.90;;;;;;4906429;29;20023;-75
2023/02/20 09:44:19;;;;;;;11.60;4.68;;;9.70;99.90;;;;;;4899402;29;20057;-75
2023/02/20 09:46:46;;;;;;;14.63;5.45;;;9.60;99.90;;;;;;4899793;29;20070;-77
2023/02/20 09:49:17;;;;;;;12.07;4.90;;;9.60;99.90;;;;;;4905296;29;20049;-75
2023/02/20 09:51:49;;;;;;;19.15;4.95;;;9.60;99.90;;;;;;4906342;29;20257;-76
2023/02/20 09:54:49;;;;;;;12.55;4.72;;;9.70;99.90;;;;;;4888865;29;20105;-76
2023/02/20 09:57:23;;;;;;;15.45;6.40;;;9.80;99.90;;;;;;4894119;29;20045;-75
2023/02/20 09:59:53;;;;;;;14.90;5.47;;;9.80;99.90;;;;;;4906207;29;20074;-76
2023/02/20 10:02:39;;;;;;;10.75;4.88;;;9.80;99.90;;;;;;4905940;29;20089;-76
2023/02/20 10:05:20;;;;;;;15.18;5.55;;;9.80;99.90;;;;;;4906854;29;20065;-77
2023/02/20 10:07:49;;;;;;;10.95;5.10;;;9.80;99.90;;;;;;4906764;29;20028;-77
2023/02/20 10:10:37;;;;;;;19.42;5.90;;;9.80;99.90;;;;;;4906464;29;20033;-77
2023/02/20 10:13:34;;;;;;;9.18;4.78;;;9.90;99.90;;;;;;4906706;29;20017;-76
2023/02/20 10:16:26;;;;;;;10.52;5.03;;;9.90;99.90;;;;;;4905568;29;20037;-76
2023/02/20 10:19:28;;;;;;;8.20;4.40;;;9.90;99.90;;;;;;4905075;29;20072;-76
2023/02/20 10:21:57;;;;;;;13.18;4.40;;;9.90;99.90;;;;;;4903806;29;20052;-75
2023/02/20 10:24:48;;;;;;;11.35;5.03;;;9.80;99.90;;;;;;4905124;29;20058;-76
2023/02/20 10:27:30;;;;;;;14.75;4.15;;;9.80;99.90;;;;;;4898504;29;20434;-77
2023/02/20 10:29:57;;;;;;;8.27;4.63;;;9.90;99.90;;;;;;4890613;29;20114;-76
2023/02/20 10:32:57;;;;;;;13.05;4.25;;;9.90;99.90;;;;;;4888583;29;20053;-75
2023/02/20 10:35:32;;;;;;;10.98;4.53;;;9.80;99.90;;;;;;4857796;29;20045;-77
2023/02/20 10:38:04;;;;;;;6.05;4.38;;;9.80;99.90;;;;;;4883684;29;20064;-76
2023/02/20 10:40:47;;;;;;;9.38;4.30;;;9.90;99.90;;;;;;4883284;29;20025;-77
2023/02/20 10:43:30;;;;;;;14.35;4.90;;;10.00;99.90;;;;;;4882401;29;20036;-77
2023/02/20 10:46:17;;;;;;;7.35;4.32;;;10.00;99.90;;;;;;4882163;29;20036;-76
2023/02/20 10:48:44;;;;;;;14.98;4.88;;;10.00;99.90;;;;;;4882166;29;20051;-76
2023/02/20 10:51:24;;;;;;;6.85;4.60;;;10.00;99.90;;;;;;4881775;29;20508;-75
2023/02/20 10:53:59;;;;;;;13.27;5.05;;;10.00;99.90;;;;;;4881706;29;20036;-76
2023/02/20 10:56:29;;;;;;;12.05;4.88;;;10.00;99.90;;;;;;4881615;29;20029;-76
2023/02/20 10:59:16;;;;;;;7.28;4.97;;;10.10;99.90;;;;;;4881034;29;20037;-77
2023/02/20 11:01:43;;;;;;;12.32;4.43;;;10.10;99.90;;;;;;4881213;29;20036;-76
2023/02/20 11:04:34;;;;;;;10.90;4.63;;;10.20;99.90;;;;;;4881158;29;20040;-77
2023/02/20 11:07:13;;;;;;;7.63;4.90;;;10.10;99.90;;;;;;4880749;29;20286;-77
2023/02/20 11:09:39;;;;;;;9.25;4.50;;;10.00;99.90;;;;;;4881166;29;20077;-77
2023/02/20 11:12:17;;;;;;;7.45;5.38;;;10.00;99.90;;;;;;4881197;29;20033;-75
2023/02/20 11:14:47;;;;;;;7.88;4.70;;;10.00;99.90;;;;;;4880557;29;20044;-76
2023/02/20 11:17:19;;;;;;;10.32;4.93;;;10.10;99.90;;;;;;4880642;29;20165;-75
2023/02/20 11:20:06;;;;;;;18.10;4.80;;;10.10;99.90;;;;;;4881154;29;20103;-77
2023/02/20 11:22:39;;;;;;;9.98;4.88;;;10.20;99.90;;;;;;4880951;29;20379;-77
2023/02/20 11:25:33;;;;;;;9.15;4.38;;;10.20;99.90;;;;;;4879554;29;20405;-77
2023/02/20 11:28:09;;;;;;;13.27;5.00;;;10.30;99.90;;;;;;4873243;29;20045;-77
2023/02/20 11:30:39;;;;;;;8.65;4.38;;;10.20;99.90;;;;;;4880740;29;20405;-76
2023/02/20 11:33:15;;;;;;;11.45;4.35;;;10.20;99.90;;;;;;4880561;29;20387;-76
2023/02/20 11:35:46;;;;;;;12.20;5.43;;;10.30;99.90;;;;;;4880717;29;20036;-76
2023/02/20 11:38:37;;;;;;;8.07;6.00;;;10.40;99.90;;;;;;4879354;29;20083;-76
2023/02/20 11:41:10;;;;;;;11.93;6.20;;;10.40;99.90;;;;;;4880146;29;20052;-76
2023/02/20 11:43:38;;;;;;;10.82;5.13;;;10.30;99.90;;;;;;4880432;29;20108;-76
2023/02/20 11:46:23;;;;;;;;;;;10.40;99.90;;;;;;4878847;29;20039;-76
2023/02/20 11:49:01;;;;;;;16.88;5.55;;;10.30;99.90;;;;;;4874835;29;19980;-76
2023/02/20 11:51:37;;;;;;;13.02;5.30;;;10.20;99.90;;;;;;4879261;29;20044;-77
2023/02/20 11:54:17;;;;;;;13.95;5.55;;;10.30;99.90;;;;;;4880457;29;20117;-77
2023/02/20 11:57:05;;;;;;;14.07;5.15;;;10.10;99.90;;;;;;4880337;29;20045;-77
2023/02/20 11:59:35;;;;;;;10.60;4.85;;;10.10;99.90;;;;;;4880929;29;20043;-76
2023/02/20 12:02:10;;;;;;;8.50;4.70;;;10.20;99.90;;;;;;4880679;29;20161;-77
2023/02/20 12:04:36;;;;;;;9.35;4.38;;;10.30;99.90;;;;;;4879095;29;20041;-76
2023/02/20 12:07:23;;;;;;;12.15;4.60;;;10.30;99.90;;;;;;4880214;29;20029;-76
2023/02/20 12:09:53;;;;;;;7.33;5.30;;;10.20;99.90;;;;;;4880259;29;20040;-77
2023/02/20 12:12:22;;;;;;;9.80;4.25;;;10.20;99.90;;;;;;4878808;29;20385;-75
2023/02/20 12:14:51;;;;;;;11.80;4.90;;;10.20;99.90;;;;;;4879852;29;20033;-77
2023/02/20 12:17:36;;;;;;;12.63;4.95;;;10.20;99.90;;;;;;4879824;29;20040;-76
2023/02/20 12:20:17;;;;;;;7.47;4.57;;;10.30;99.90;;;;;;4878891;29;20037;-76
2023/02/20 12:23:08;;;;;;;7.40;4.75;;;10.30;99.90;;;;;;4880036;29;20053;-76
2023/02/20 12:25:58;;;;;;;7.63;4.30;;;10.40;99.90;;;;;;4879813;29;20033;-77
2023/02/20 12:28:45;;;;;;;10.98;4.40;;;10.40;99.90;;;;;;4873704;29;20044;-76
2023/02/20 12:31:24;;;;;;;11.32;4.20;;;10.50;99.90;;;;;;4879907;29;20033;-76
2023/02/20 12:34:10;;;;;;;15.23;4.07;;;10.50;99.90;;;;;;4879945;29;20389;-75
2023/02/20 12:36:40;;;;;;;12.23;5.05;;;10.50;99.90;;;;;;4880114;29;20453;-75
2023/02/20 12:39:12;;;;;;;11.57;4.90;;;10.60;99.90;;;;;;4878544;29;20029;-76
2023/02/20 12:42:29;;;;;;;9.25;4.38;;;10.60;99.90;;;;;;4879532;29;20044;-76
2023/02/20 12:45:19;;;;;;;15.13;5.50;;;10.60;99.90;;;;;;4863502;29;20477;-77
2023/02/20 12:47:45;;;;;;;9.13;4.65;;;10.50;99.90;;;;;;4879769;29;20048;-77
2023/02/20 12:51:09;;;;;;;13.07;4.90;;;10.40;99.90;;;;;;4879937;29;20077;-75
2023/02/20 12:54:07;;;;;;;21.75;9.10;;;10.30;99.90;;;;;;4879695;29;20052;-78
2023/02/20 12:56:54;;;;;;;12.75;5.70;;;10.30;99.90;;;;;;4868588;29;20045;-76
2023/02/20 12:59:42;;;;;;;15.38;5.18;;;10.40;99.90;;;;;;4883514;29;20398;-76
2023/02/20 13:02:35;;;;;;;9.80;5.07;;;10.40;99.90;;;;;;4883578;29;20486;-77
2023/02/20 13:05:03;;;;;;;14.50;5.22;;;10.50;99.90;;;;;;4883088;29;20100;-76
2023/02/20 13:07:51;;;;;;;13.20;5.13;;;10.60;99.90;;;;;;4883241;29;20397;-76
2023/02/20 13:10:32;;;;;;;13.48;4.82;;;10.70;99.90;;;;;;4883419;29;20048;-76
2023/02/20 13:12:58;;;;;;;9.13;4.10;;;10.60;99.90;;;;;;4883353;29;20102;-76
2023/02/20 13:15:56;;;;;;;11.15;3.95;;;10.70;99.90;;;;;;4883487;29;20542;-76
2023/02/20 13:18:27;;;;;;;6.85;5.18;;;10.50;99.90;;;;;;4874610;29;20517;-76
2023/02/20 13:21:03;;;;;;;12.50;5.13;;;10.40;99.90;;;;;;4883184;29;20041;-77
2023/02/20 13:23:34;;;;;;;11.32;5.13;;;10.40;99.90;;;;;;4882958;29;20037;-77